sensor_id;sensor_type;location;lat;lon;timestamp;temperature;humidity
19880;DHT22;10102;50.828;4.416;2023-11-21T00:01:17;11.80;99.90
19880;DHT22;10102;50.828;4.416;2023-11-21T00:03:43;11.50;99.90
19880;DHT22;10102;50.828;4.416;2023-11-21T00:06:09;11.80;99.90
19880;DHT22;10102;50.828;4.416;2023-11-21T00:08:36;11.80;99.90
19880;DHT22;10102;50.828;4.416;2023-11-21T00:11:02;11.80;99.90
19880;DHT22;10102;50.828;4.416;2023-11-21T00:15:57;11.90;99.90
19880;DHT22;10102;50.828;4.416;2023-11-21T00:18:22;11.90;99.90
19880;DHT22;10102;50.828;4.416;2023-11-21T00:20:48;11.90;99.90
19880;DHT22;10102;50.828;4.416;2023-11-21T00:23:13;11.90;99.90
19880;DHT22;10102;50.828;4.416;2023-11-21T00:25:39;11.90;99.90
19880;DHT22;10102;50.828;4.416;2023-11-21T00:28:05;11.90;99.90
19880;DHT22;10102;50.828;4.416;2023-11-21T00:30:31;11.80;99.90
19880;DHT22;10102;50.828;4.416;2023-11-21T00:32:57;11.80;99.90
19880;DHT22;10102;50.828;4.416;2023-11-21T00:35:23;11.70;99.90
19880;DHT22;10102;50.828;4.416;2023-11-21T00:37:50;11.70;99.90
19880;DHT22;10102;50.828;4.416;2023-11-21T00:40:16;11.40;99.90
19880;DHT22;10102;50.828;4.416;2023-11-21T00:42:45;11.90;99.90
19880;DHT22;10102;50.828;4.416;2023-11-21T00:45:10;11.30;99.90
19880;DHT22;10102;50.828;4.416;2023-11-21T00:47:36;11.50;99.90
19880;DHT22;10102;50.828;4.416;2023-11-21T00:50:03;11.60;99.90
19880;DHT22;10102;50.828;4.416;2023-11-21T00:52:31;11.50;99.90
19880;DHT22;10102;50.828;4.416;2023-11-21T00:54:57;11.40;99.90
19880;DHT22;10102;50.828;4.416;2023-11-21T00:57:26;11.20;99.90
19880;DHT22;10102;50.828;4.416;2023-11-21T00:59:53;11.10;99.90
19880;DHT22;10102;50.828;4.416;2023-11-21T01:02:18;10.90;99.90
19880;DHT22;10102;50.828;4.416;2023-11-21T01:04:44;11.20;99.90
19880;DHT22;10102;50.828;4.416;2023-11-21T01:07:10;10.90;99.90
19880;DHT22;10102;50.828;4.416;2023-11-21T01:09:40;10.90;99.90
19880;DHT22;10102;50.828;4.416;2023-11-21T01:12:16;10.90;99.90
19880;DHT22;10102;50.828;4.416;2023-11-21T01:14:43;11.00;99.90
19880;DHT22;10102;50.828;4.416;2023-11-21T01:17:09;10.90;99.90
19880;DHT22;10102;50.828;4.416;2023-11-21T01:19:46;10.90;99.90
19880;DHT22;10102;50.828;4.416;2023-11-21T01:22:12;10.60;99.90
19880;DHT22;10102;50.828;4.416;2023-11-21T01:24:38;10.70;99.90
19880;DHT22;10102;50.828;4.416;2023-11-21T01:27:04;10.90;99.90
19880;DHT22;10102;50.828;4.416;2023-11-21T01:29:30;11.00;99.90
19880;DHT22;10102;50.828;4.416;2023-11-21T01:31:58;10.90;99.90
19880;DHT22;10102;50.828;4.416;2023-11-21T01:34:25;11.00;99.90
19880;DHT22;10102;50.828;4.416;2023-11-21T01:36:51;11.00;99.90
19880;DHT22;10102;50.828;4.416;2023-11-21T01:39:20;11.20;99.90
19880;DHT22;10102;50.828;4.416;2023-11-21T01:41:51;11.10;99.90
19880;DHT22;10102;50.828;4.416;2023-11-21T01:44:17;11.20;99.90
19880;DHT22;10102;50.828;4.416;2023-11-21T01:46:45;10.90;99.90
19880;DHT22;10102;50.828;4.416;2023-11-21T01:49:12;11.60;99.90
19880;DHT22;10102;50.828;4.416;2023-11-21T01:51:40;11.30;99.90
19880;DHT22;10102;50.828;4.416;2023-11-21T01:54:06;11.40;99.90
19880;DHT22;10102;50.828;4.416;2023-11-21T01:56:33;11.40;99.90
19880;DHT22;10102;50.828;4.416;2023-11-21T01:58:59;11.40;99.90
19880;DHT22;10102;50.828;4.416;2023-11-21T02:01:24;11.40;99.90
19880;DHT22;10102;50.828;4.416;2023-11-21T02:03:51;11.50;99.90
19880;DHT22;10102;50.828;4.416;2023-11-21T02:06:18;11.50;99.90
19880;DHT22;10102;50.828;4.416;2023-11-21T02:08:44;11.40;99.90
19880;DHT22;10102;50.828;4.416;2023-11-21T02:11:10;11.50;99.90
19880;DHT22;10102;50.828;4.416;2023-11-21T02:13:39;11.60;99.90
19880;DHT22;10102;50.828;4.416;2023-11-21T02:16:09;11.50;99.90
19880;DHT22;10102;50.828;4.416;2023-11-21T02:18:36;11.40;99.90
19880;DHT22;10102;50.828;4.416;2023-11-21T02:21:04;11.50;99.90
19880;DHT22;10102;50.828;4.416;2023-11-21T02:23:30;11.50;99.90
19880;DHT22;10102;50.828;4.416;2023-11-21T02:25:56;11.50;99.90
19880;DHT22;10102;50.828;4.416;2023-11-21T02:28:22;11.60;99.90
19880;DHT22;10102;50.828;4.416;2023-11-21T02:30:52;11.60;99.90
19880;DHT22;10102;50.828;4.416;2023-11-21T02:33:22;11.60;99.90
19880;DHT22;10102;50.828;4.416;2023-11-21T02:35:49;11.60;99.90
19880;DHT22;10102;50.828;4.416;2023-11-21T02:38:14;11.50;99.90
19880;DHT22;10102;50.828;4.416;2023-11-21T02:40:42;11.60;99.90
19880;DHT22;10102;50.828;4.416;2023-11-21T02:43:07;11.50;99.90
19880;DHT22;10102;50.828;4.416;2023-11-21T02:45:33;11.50;99.90
19880;DHT22;10102;50.828;4.416;2023-11-21T02:47:58;11.40;99.90
19880;DHT22;10102;50.828;4.416;2023-11-21T02:50:24;11.50;99.90
19880;DHT22;10102;50.828;4.416;2023-11-21T02:52:50;11.50;99.90
19880;DHT22;10102;50.828;4.416;2023-11-21T02:55:16;11.50;99.90
19880;DHT22;10102;50.828;4.416;2023-11-21T02:57:42;11.50;99.90
19880;DHT22;10102;50.828;4.416;2023-11-21T03:00:08;11.60;99.90
19880;DHT22;10102;50.828;4.416;2023-11-21T03:02:35;11.70;99.90
19880;DHT22;10102;50.828;4.416;2023-11-21T03:05:05;11.50;99.90
19880;DHT22;10102;50.828;4.416;2023-11-21T03:07:30;11.50;99.90
19880;DHT22;10102;50.828;4.416;2023-11-21T03:09:56;11.50;99.90
19880;DHT22;10102;50.828;4.416;2023-11-21T03:12:22;11.60;99.90
19880;DHT22;10102;50.828;4.416;2023-11-21T03:17:13;11.60;99.90
19880;DHT22;10102;50.828;4.416;2023-11-21T03:19:41;11.70;99.90
19880;DHT22;10102;50.828;4.416;2023-11-21T03:22:07;11.70;99.90
19880;DHT22;10102;50.828;4.416;2023-11-21T03:24:34;11.60;99.90
19880;DHT22;10102;50.828;4.416;2023-11-21T03:27:00;11.60;99.90
19880;DHT22;10102;50.828;4.416;2023-11-21T03:29:26;11.70;99.90
19880;DHT22;10102;50.828;4.416;2023-11-21T03:31:51;11.70;99.90
19880;DHT22;10102;50.828;4.416;2023-11-21T03:34:32;11.70;99.90
19880;DHT22;10102;50.828;4.416;2023-11-21T03:36:58;11.80;99.90
19880;DHT22;10102;50.828;4.416;2023-11-21T03:39:24;11.80;99.90
19880;DHT22;10102;50.828;4.416;2023-11-21T03:41:51;11.90;99.90
19880;DHT22;10102;50.828;4.416;2023-11-21T03:44:17;11.80;99.90
19880;DHT22;10102;50.828;4.416;2023-11-21T03:46:43;11.90;99.90
19880;DHT22;10102;50.828;4.416;2023-11-21T03:49:09;11.90;99.90
19880;DHT22;10102;50.828;4.416;2023-11-21T03:51:36;11.80;99.90
19880;DHT22;10102;50.828;4.416;2023-11-21T03:54:03;11.90;99.90
19880;DHT22;10102;50.828;4.416;2023-11-21T03:56:28;11.80;99.90
19880;DHT22;10102;50.828;4.416;2023-11-21T03:58:54;11.80;99.90
19880;DHT22;10102;50.828;4.416;2023-11-21T04:01:23;11.80;99.90
19880;DHT22;10102;50.828;4.416;2023-11-21T04:03:50;11.80;99.90
19880;DHT22;10102;50.828;4.416;2023-11-21T04:06:17;11.70;99.90
19880;DHT22;10102;50.828;4.416;2023-11-21T04:08:45;11.70;99.90
19880;DHT22;10102;50.828;4.416;2023-11-21T04:11:11;11.70;99.90
19880;DHT22;10102;50.828;4.416;2023-11-21T04:13:40;11.80;99.90
19880;DHT22;10102;50.828;4.416;2023-11-21T04:16:08;11.50;99.90
19880;DHT22;10102;50.828;4.416;2023-11-21T04:18:37;11.70;99.90
19880;DHT22;10102;50.828;4.416;2023-11-21T04:21:07;11.80;99.90
19880;DHT22;10102;50.828;4.416;2023-11-21T04:23:33;11.70;99.90
19880;DHT22;10102;50.828;4.416;2023-11-21T04:26:00;11.70;99.90
19880;DHT22;10102;50.828;4.416;2023-11-21T04:28:27;11.80;99.90
19880;DHT22;10102;50.828;4.416;2023-11-21T04:30:53;11.50;99.90
19880;DHT22;10102;50.828;4.416;2023-11-21T04:33:19;11.40;99.90
19880;DHT22;10102;50.828;4.416;2023-11-21T04:35:44;11.40;99.90
19880;DHT22;10102;50.828;4.416;2023-11-21T04:38:10;11.50;99.90
19880;DHT22;10102;50.828;4.416;2023-11-21T04:40:36;11.50;99.90
19880;DHT22;10102;50.828;4.416;2023-11-21T04:43:02;11.50;99.90
19880;DHT22;10102;50.828;4.416;2023-11-21T04:45:27;11.60;99.90
19880;DHT22;10102;50.828;4.416;2023-11-21T04:47:53;11.60;99.90
19880;DHT22;10102;50.828;4.416;2023-11-21T04:50:19;11.60;99.90
19880;DHT22;10102;50.828;4.416;2023-11-21T04:52:45;11.70;99.90
19880;DHT22;10102;50.828;4.416;2023-11-21T04:55:11;11.80;99.90
19880;DHT22;10102;50.828;4.416;2023-11-21T04:57:37;11.70;99.90
19880;DHT22;10102;50.828;4.416;2023-11-21T05:00:03;11.60;99.90
19880;DHT22;10102;50.828;4.416;2023-11-21T05:02:32;11.60;99.90
19880;DHT22;10102;50.828;4.416;2023-11-21T05:04:59;11.60;99.90
19880;DHT22;10102;50.828;4.416;2023-11-21T05:07:25;11.60;99.90
19880;DHT22;10102;50.828;4.416;2023-11-21T05:09:54;11.60;99.90
19880;DHT22;10102;50.828;4.416;2023-11-21T05:12:21;11.60;99.90
19880;DHT22;10102;50.828;4.416;2023-11-21T05:14:49;11.70;99.90
19880;DHT22;10102;50.828;4.416;2023-11-21T05:17:14;11.60;99.90
19880;DHT22;10102;50.828;4.416;2023-11-21T05:19:40;11.70;99.90
19880;DHT22;10102;50.828;4.416;2023-11-21T05:22:06;11.80;99.90
19880;DHT22;10102;50.828;4.416;2023-11-21T05:24:33;11.70;99.90
19880;DHT22;10102;50.828;4.416;2023-11-21T05:26:59;11.90;99.90
19880;DHT22;10102;50.828;4.416;2023-11-21T05:29:25;11.90;99.90
19880;DHT22;10102;50.828;4.416;2023-11-21T05:31:51;11.90;99.90
19880;DHT22;10102;50.828;4.416;2023-11-21T05:34:18;11.90;99.90
19880;DHT22;10102;50.828;4.416;2023-11-21T05:36:44;11.90;99.90
19880;DHT22;10102;50.828;4.416;2023-11-21T05:39:11;11.90;99.90
19880;DHT22;10102;50.828;4.416;2023-11-21T05:41:37;11.90;99.90
19880;DHT22;10102;50.828;4.416;2023-11-21T05:44:03;11.90;99.90
19880;DHT22;10102;50.828;4.416;2023-11-21T05:46:28;12.00;99.90
19880;DHT22;10102;50.828;4.416;2023-11-21T05:48:54;11.90;99.90
19880;DHT22;10102;50.828;4.416;2023-11-21T05:51:20;11.90;99.90
19880;DHT22;10102;50.828;4.416;2023-11-21T05:53:46;12.00;99.90
19880;DHT22;10102;50.828;4.416;2023-11-21T05:56:12;12.00;99.90
19880;DHT22;10102;50.828;4.416;2023-11-21T05:58:39;12.00;99.90
19880;DHT22;10102;50.828;4.416;2023-11-21T06:01:05;11.90;99.90
19880;DHT22;10102;50.828;4.416;2023-11-21T06:03:33;12.00;99.90
19880;DHT22;10102;50.828;4.416;2023-11-21T06:05:58;11.50;99.90
19880;DHT22;10102;50.828;4.416;2023-11-21T06:08:24;11.90;99.90
19880;DHT22;10102;50.828;4.416;2023-11-21T06:10:50;11.80;99.90
19880;DHT22;10102;50.828;4.416;2023-11-21T06:13:15;11.90;99.90
19880;DHT22;10102;50.828;4.416;2023-11-21T06:15:42;11.90;99.90
19880;DHT22;10102;50.828;4.416;2023-11-21T06:18:07;11.90;99.90
19880;DHT22;10102;50.828;4.416;2023-11-21T06:20:35;11.80;99.90
19880;DHT22;10102;50.828;4.416;2023-11-21T06:23:02;11.80;99.90
19880;DHT22;10102;50.828;4.416;2023-11-21T06:25:29;11.90;99.90
19880;DHT22;10102;50.828;4.416;2023-11-21T06:27:58;11.90;99.90
19880;DHT22;10102;50.828;4.416;2023-11-21T06:30:24;12.00;99.90
19880;DHT22;10102;50.828;4.416;2023-11-21T06:32:49;12.00;99.90
19880;DHT22;10102;50.828;4.416;2023-11-21T06:35:16;11.90;99.90
19880;DHT22;10102;50.828;4.416;2023-11-21T06:37:42;12.00;99.90
19880;DHT22;10102;50.828;4.416;2023-11-21T06:40:13;12.00;99.90
19880;DHT22;10102;50.828;4.416;2023-11-21T06:42:41;12.10;99.90
19880;DHT22;10102;50.828;4.416;2023-11-21T06:45:07;12.10;99.90
19880;DHT22;10102;50.828;4.416;2023-11-21T06:47:33;12.10;99.90
19880;DHT22;10102;50.828;4.416;2023-11-21T06:49:59;12.40;99.90
19880;DHT22;10102;50.828;4.416;2023-11-21T06:52:26;12.20;99.90
19880;DHT22;10102;50.828;4.416;2023-11-21T06:54:51;12.20;99.90
19880;DHT22;10102;50.828;4.416;2023-11-21T06:57:17;12.20;99.90
19880;DHT22;10102;50.828;4.416;2023-11-21T06:59:43;12.10;99.90
19880;DHT22;10102;50.828;4.416;2023-11-21T07:02:09;12.10;99.90
19880;DHT22;10102;50.828;4.416;2023-11-21T07:04:37;12.20;99.90
19880;DHT22;10102;50.828;4.416;2023-11-21T07:07:04;12.20;99.90
19880;DHT22;10102;50.828;4.416;2023-11-21T07:09:30;12.10;99.90
19880;DHT22;10102;50.828;4.416;2023-11-21T07:12:14;12.30;99.90
19880;DHT22;10102;50.828;4.416;2023-11-21T07:14:40;12.20;99.90
19880;DHT22;10102;50.828;4.416;2023-11-21T07:17:09;12.30;99.90
19880;DHT22;10102;50.828;4.416;2023-11-21T07:19:34;12.40;99.90
19880;DHT22;10102;50.828;4.416;2023-11-21T07:22:01;12.30;99.90
19880;DHT22;10102;50.828;4.416;2023-11-21T07:24:26;12.00;99.90
19880;DHT22;10102;50.828;4.416;2023-11-21T07:26:52;12.30;99.90
19880;DHT22;10102;50.828;4.416;2023-11-21T07:29:23;12.30;99.90
19880;DHT22;10102;50.828;4.416;2023-11-21T07:31:51;12.20;99.90
19880;DHT22;10102;50.828;4.416;2023-11-21T07:34:17;12.10;99.90
19880;DHT22;10102;50.828;4.416;2023-11-21T07:36:42;12.10;99.90
19880;DHT22;10102;50.828;4.416;2023-11-21T07:39:08;12.10;99.90
19880;DHT22;10102;50.828;4.416;2023-11-21T07:41:34;12.20;99.90
19880;DHT22;10102;50.828;4.416;2023-11-21T07:43:59;12.10;99.90
19880;DHT22;10102;50.828;4.416;2023-11-21T07:46:26;12.10;99.90
19880;DHT22;10102;50.828;4.416;2023-11-21T07:48:52;12.20;99.90
19880;DHT22;10102;50.828;4.416;2023-11-21T07:51:18;12.20;99.90
19880;DHT22;10102;50.828;4.416;2023-11-21T07:53:44;12.20;99.90
19880;DHT22;10102;50.828;4.416;2023-11-21T07:56:10;12.00;99.90
19880;DHT22;10102;50.828;4.416;2023-11-21T07:58:36;12.10;99.90
19880;DHT22;10102;50.828;4.416;2023-11-21T08:01:03;12.20;99.90
19880;DHT22;10102;50.828;4.416;2023-11-21T08:03:29;12.20;99.90
19880;DHT22;10102;50.828;4.416;2023-11-21T08:05:56;12.30;99.90
19880;DHT22;10102;50.828;4.416;2023-11-21T08:08:23;12.50;99.90
19880;DHT22;10102;50.828;4.416;2023-11-21T08:10:49;12.50;99.90
19880;DHT22;10102;50.828;4.416;2023-11-21T08:13:26;12.40;99.90
19880;DHT22;10102;50.828;4.416;2023-11-21T08:15:54;12.40;99.90
19880;DHT22;10102;50.828;4.416;2023-11-21T08:18:20;12.30;99.90
19880;DHT22;10102;50.828;4.416;2023-11-21T08:20:46;12.20;99.90
19880;DHT22;10102;50.828;4.416;2023-11-21T08:23:15;12.20;99.90
19880;DHT22;10102;50.828;4.416;2023-11-21T08:25:46;12.40;99.90
19880;DHT22;10102;50.828;4.416;2023-11-21T08:28:12;12.40;99.90
19880;DHT22;10102;50.828;4.416;2023-11-21T08:30:39;12.50;99.90
19880;DHT22;10102;50.828;4.416;2023-11-21T08:33:07;12.40;99.90
19880;DHT22;10102;50.828;4.416;2023-11-21T08:35:34;12.50;99.90
19880;DHT22;10102;50.828;4.416;2023-11-21T08:38:00;12.50;99.90
19880;DHT22;10102;50.828;4.416;2023-11-21T08:40:26;12.10;99.90
19880;DHT22;10102;50.828;4.416;2023-11-21T08:42:51;12.50;99.90
19880;DHT22;10102;50.828;4.416;2023-11-21T08:45:19;12.70;99.90
19880;DHT22;10102;50.828;4.416;2023-11-21T08:47:45;12.50;99.90
19880;DHT22;10102;50.828;4.416;2023-11-21T08:50:11;12.70;99.90
19880;DHT22;10102;50.828;4.416;2023-11-21T08:52:38;12.50;99.90
19880;DHT22;10102;50.828;4.416;2023-11-21T08:55:05;12.50;99.90
19880;DHT22;10102;50.828;4.416;2023-11-21T08:57:36;12.20;99.90
19880;DHT22;10102;50.828;4.416;2023-11-21T09:00:03;12.60;99.90
19880;DHT22;10102;50.828;4.416;2023-11-21T09:02:37;12.60;99.90
19880;DHT22;10102;50.828;4.416;2023-11-21T09:05:06;12.90;99.90
19880;DHT22;10102;50.828;4.416;2023-11-21T09:07:32;12.80;99.90
19880;DHT22;10102;50.828;4.416;2023-11-21T09:09:58;12.80;99.90
19880;DHT22;10102;50.828;4.416;2023-11-21T09:12:24;12.80;99.90
19880;DHT22;10102;50.828;4.416;2023-11-21T09:14:52;12.40;99.90
19880;DHT22;10102;50.828;4.416;2023-11-21T09:19:45;12.50;99.90
19880;DHT22;10102;50.828;4.416;2023-11-21T09:22:16;12.50;99.90
19880;DHT22;10102;50.828;4.416;2023-11-21T09:24:41;12.30;99.90
19880;DHT22;10102;50.828;4.416;2023-11-21T09:27:07;12.40;99.90
19880;DHT22;10102;50.828;4.416;2023-11-21T09:29:33;12.60;99.90
19880;DHT22;10102;50.828;4.416;2023-11-21T09:31:59;12.50;99.90
19880;DHT22;10102;50.828;4.416;2023-11-21T09:34:25;12.50;99.90
19880;DHT22;10102;50.828;4.416;2023-11-21T09:36:51;12.50;99.90
19880;DHT22;10102;50.828;4.416;2023-11-21T09:39:17;12.60;99.90
19880;DHT22;10102;50.828;4.416;2023-11-21T09:41:58;12.60;99.90
19880;DHT22;10102;50.828;4.416;2023-11-21T09:44:35;12.60;99.90
19880;DHT22;10102;50.828;4.416;2023-11-21T09:47:02;12.70;99.90
19880;DHT22;10102;50.828;4.416;2023-11-21T09:49:28;12.80;99.90
19880;DHT22;10102;50.828;4.416;2023-11-21T09:51:58;12.90;99.90
19880;DHT22;10102;50.828;4.416;2023-11-21T09:54:29;12.80;99.90
19880;DHT22;10102;50.828;4.416;2023-11-21T09:57:00;12.90;99.90
19880;DHT22;10102;50.828;4.416;2023-11-21T09:59:30;13.00;99.90
19880;DHT22;10102;50.828;4.416;2023-11-21T10:01:57;13.00;99.90
19880;DHT22;10102;50.828;4.416;2023-11-21T10:04:24;12.90;99.90
19880;DHT22;10102;50.828;4.416;2023-11-21T10:06:50;13.00;99.90
19880;DHT22;10102;50.828;4.416;2023-11-21T10:09:16;13.10;99.90
19880;DHT22;10102;50.828;4.416;2023-11-21T10:11:55;13.20;99.90
19880;DHT22;10102;50.828;4.416;2023-11-21T10:14:24;13.20;99.90
19880;DHT22;10102;50.828;4.416;2023-11-21T10:16:52;13.20;99.90
19880;DHT22;10102;50.828;4.416;2023-11-21T10:19:19;13.00;99.90
19880;DHT22;10102;50.828;4.416;2023-11-21T10:21:46;13.30;99.90
19880;DHT22;10102;50.828;4.416;2023-11-21T10:24:12;13.50;99.90
19880;DHT22;10102;50.828;4.416;2023-11-21T10:26:38;13.20;99.90
19880;DHT22;10102;50.828;4.416;2023-11-21T10:29:04;13.10;99.90
19880;DHT22;10102;50.828;4.416;2023-11-21T10:31:30;13.00;99.90
19880;DHT22;10102;50.828;4.416;2023-11-21T10:34:16;13.10;99.90
19880;DHT22;10102;50.828;4.416;2023-11-21T10:36:42;13.20;99.90
19880;DHT22;10102;50.828;4.416;2023-11-21T10:39:08;13.30;99.90
19880;DHT22;10102;50.828;4.416;2023-11-21T10:41:35;13.90;99.90
19880;DHT22;10102;50.828;4.416;2023-11-21T10:44:01;13.80;99.90
19880;DHT22;10102;50.828;4.416;2023-11-21T10:46:30;13.90;99.90
19880;DHT22;10102;50.828;4.416;2023-11-21T10:48:57;14.10;99.90
19880;DHT22;10102;50.828;4.416;2023-11-21T10:51:23;14.10;99.90
19880;DHT22;10102;50.828;4.416;2023-11-21T10:53:54;14.10;99.90
19880;DHT22;10102;50.828;4.416;2023-11-21T10:56:23;14.10;99.90
19880;DHT22;10102;50.828;4.416;2023-11-21T10:58:49;13.90;99.90
19880;DHT22;10102;50.828;4.416;2023-11-21T11:01:18;14.60;99.90
19880;DHT22;10102;50.828;4.416;2023-11-21T11:03:44;14.30;99.90
19880;DHT22;10102;50.828;4.416;2023-11-21T11:06:10;14.50;99.90
19880;DHT22;10102;50.828;4.416;2023-11-21T11:08:39;14.50;99.90
19880;DHT22;10102;50.828;4.416;2023-11-21T11:11:06;14.50;99.90
19880;DHT22;10102;50.828;4.416;2023-11-21T11:13:32;14.50;99.90
19880;DHT22;10102;50.828;4.416;2023-11-21T11:15:59;14.40;99.90
19880;DHT22;10102;50.828;4.416;2023-11-21T11:18:30;14.40;99.90
19880;DHT22;10102;50.828;4.416;2023-11-21T11:21:23;14.40;99.90
19880;DHT22;10102;50.828;4.416;2023-11-21T11:24:20;14.40;99.90
19880;DHT22;10102;50.828;4.416;2023-11-21T11:27:18;14.10;99.90
19880;DHT22;10102;50.828;4.416;2023-11-21T11:36:02;14.30;99.90
19880;DHT22;10102;50.828;4.416;2023-11-21T11:38:33;14.30;99.90
19880;DHT22;10102;50.828;4.416;2023-11-21T11:41:02;14.20;99.90
19880;DHT22;10102;50.828;4.416;2023-11-21T11:43:29;14.30;99.90
19880;DHT22;10102;50.828;4.416;2023-11-21T11:45:57;14.80;99.90
19880;DHT22;10102;50.828;4.416;2023-11-21T11:48:25;14.40;99.90
19880;DHT22;10102;50.828;4.416;2023-11-21T11:53:40;14.40;99.90
19880;DHT22;10102;50.828;4.416;2023-11-21T11:58:48;14.20;99.90
19880;DHT22;10102;50.828;4.416;2023-11-21T12:01:18;13.90;99.90
19880;DHT22;10102;50.828;4.416;2023-11-21T12:03:44;13.80;99.90
19880;DHT22;10102;50.828;4.416;2023-11-21T12:06:10;13.90;99.90
19880;DHT22;10102;50.828;4.416;2023-11-21T12:08:37;13.90;99.90
19880;DHT22;10102;50.828;4.416;2023-11-21T12:11:04;13.80;99.90
19880;DHT22;10102;50.828;4.416;2023-11-21T12:13:31;13.70;99.90
19880;DHT22;10102;50.828;4.416;2023-11-21T12:15:57;13.70;99.90
19880;DHT22;10102;50.828;4.416;2023-11-21T12:18:24;13.70;99.90
19880;DHT22;10102;50.828;4.416;2023-11-21T12:20:51;13.70;99.90
19880;DHT22;10102;50.828;4.416;2023-11-21T12:23:17;13.60;99.90
19880;DHT22;10102;50.828;4.416;2023-11-21T12:25:43;13.90;99.90
19880;DHT22;10102;50.828;4.416;2023-11-21T12:28:09;14.00;99.90
19880;DHT22;10102;50.828;4.416;2023-11-21T12:30:36;14.20;99.90
19880;DHT22;10102;50.828;4.416;2023-11-21T12:33:04;14.00;99.90
19880;DHT22;10102;50.828;4.416;2023-11-21T12:35:35;14.10;99.90
19880;DHT22;10102;50.828;4.416;2023-11-21T12:38:02;14.30;99.90
19880;DHT22;10102;50.828;4.416;2023-11-21T12:40:31;14.00;99.90
19880;DHT22;10102;50.828;4.416;2023-11-21T12:42:58;13.60;99.90
19880;DHT22;10102;50.828;4.416;2023-11-21T12:45:26;13.70;99.90
19880;DHT22;10102;50.828;4.416;2023-11-21T12:47:58;13.60;99.90
19880;DHT22;10102;50.828;4.416;2023-11-21T12:50:26;13.40;99.90
19880;DHT22;10102;50.828;4.416;2023-11-21T12:53:08;13.80;99.90
19880;DHT22;10102;50.828;4.416;2023-11-21T12:55:35;13.80;99.90
19880;DHT22;10102;50.828;4.416;2023-11-21T12:58:04;14.10;99.90
19880;DHT22;10102;50.828;4.416;2023-11-21T13:03:04;14.00;99.90
19880;DHT22;10102;50.828;4.416;2023-11-21T13:05:33;14.10;99.90
19880;DHT22;10102;50.828;4.416;2023-11-21T13:08:01;13.90;99.90
19880;DHT22;10102;50.828;4.416;2023-11-21T13:10:34;14.00;99.90
19880;DHT22;10102;50.828;4.416;2023-11-21T13:13:02;13.60;99.90
19880;DHT22;10102;50.828;4.416;2023-11-21T13:15:31;14.40;99.90
19880;DHT22;10102;50.828;4.416;2023-11-21T13:17:58;13.60;99.90
19880;DHT22;10102;50.828;4.416;2023-11-21T13:20:27;13.60;99.90
19880;DHT22;10102;50.828;4.416;2023-11-21T13:22:56;13.50;99.90
19880;DHT22;10102;50.828;4.416;2023-11-21T13:25:29;13.60;99.90
19880;DHT22;10102;50.828;4.416;2023-11-21T13:27:57;13.70;99.90
19880;DHT22;10102;50.828;4.416;2023-11-21T13:30:24;13.60;99.90
19880;DHT22;10102;50.828;4.416;2023-11-21T13:33:02;13.50;99.90
19880;DHT22;10102;50.828;4.416;2023-11-21T13:38:09;13.50;99.90
19880;DHT22;10102;50.828;4.416;2023-11-21T13:40:36;13.60;99.90
19880;DHT22;10102;50.828;4.416;2023-11-21T13:43:13;13.30;99.90
19880;DHT22;10102;50.828;4.416;2023-11-21T13:45:42;13.70;99.90
19880;DHT22;10102;50.828;4.416;2023-11-21T13:48:11;13.60;99.90
19880;DHT22;10102;50.828;4.416;2023-11-21T13:50:46;13.60;99.90
19880;DHT22;10102;50.828;4.416;2023-11-21T13:53:21;13.80;99.90
19880;DHT22;10102;50.828;4.416;2023-11-21T13:55:51;13.60;99.90
19880;DHT22;10102;50.828;4.416;2023-11-21T13:58:20;13.60;99.90
19880;DHT22;10102;50.828;4.416;2023-11-21T14:00:54;13.80;99.90
19880;DHT22;10102;50.828;4.416;2023-11-21T14:03:23;13.60;99.90
19880;DHT22;10102;50.828;4.416;2023-11-21T14:05:51;13.70;99.90
19880;DHT22;10102;50.828;4.416;2023-11-21T14:08:20;13.60;99.90
19880;DHT22;10102;50.828;4.416;2023-11-21T14:10:51;13.60;99.90
19880;DHT22;10102;50.828;4.416;2023-11-21T14:13:21;13.60;99.90
19880;DHT22;10102;50.828;4.416;2023-11-21T14:15:49;13.70;99.90
19880;DHT22;10102;50.828;4.416;2023-11-21T14:18:17;13.50;99.90
19880;DHT22;10102;50.828;4.416;2023-11-21T14:20:51;13.30;99.90
19880;DHT22;10102;50.828;4.416;2023-11-21T14:23:17;13.40;99.90
19880;DHT22;10102;50.828;4.416;2023-11-21T14:25:43;13.30;99.90
19880;DHT22;10102;50.828;4.416;2023-11-21T14:28:09;13.30;99.90
19880;DHT22;10102;50.828;4.416;2023-11-21T14:30:38;13.30;99.90
19880;DHT22;10102;50.828;4.416;2023-11-21T14:33:05;13.40;99.90
19880;DHT22;10102;50.828;4.416;2023-11-21T14:35:31;13.40;99.90
19880;DHT22;10102;50.828;4.416;2023-11-21T14:37:58;13.40;99.90
19880;DHT22;10102;50.828;4.416;2023-11-21T14:40:25;13.50;99.90
19880;DHT22;10102;50.828;4.416;2023-11-21T14:42:51;13.40;99.90
19880;DHT22;10102;50.828;4.416;2023-11-21T14:50:36;13.30;99.90
19880;DHT22;10102;50.828;4.416;2023-11-21T14:53:15;13.30;99.90
19880;DHT22;10102;50.828;4.416;2023-11-21T14:55:41;13.20;99.90
19880;DHT22;10102;50.828;4.416;2023-11-21T14:58:33;13.00;99.90
19880;DHT22;10102;50.828;4.416;2023-11-21T15:00:59;12.90;99.90
19880;DHT22;10102;50.828;4.416;2023-11-21T15:03:28;12.80;99.90
19880;DHT22;10102;50.828;4.416;2023-11-21T15:05:57;12.80;99.90
19880;DHT22;10102;50.828;4.416;2023-11-21T15:08:25;12.80;99.90
19880;DHT22;10102;50.828;4.416;2023-11-21T15:10:57;13.00;99.90
19880;DHT22;10102;50.828;4.416;2023-11-21T15:13:24;12.90;99.90
19880;DHT22;10102;50.828;4.416;2023-11-21T15:15:52;12.90;99.90
19880;DHT22;10102;50.828;4.416;2023-11-21T15:18:20;13.00;99.90
19880;DHT22;10102;50.828;4.416;2023-11-21T15:20:46;13.00;99.90
19880;DHT22;10102;50.828;4.416;2023-11-21T15:23:12;12.80;99.90
19880;DHT22;10102;50.828;4.416;2023-11-21T15:25:43;12.70;99.90
19880;DHT22;10102;50.828;4.416;2023-11-21T15:28:08;12.70;99.90
19880;DHT22;10102;50.828;4.416;2023-11-21T15:30:34;12.70;99.90
19880;DHT22;10102;50.828;4.416;2023-11-21T15:35:27;12.60;99.90
19880;DHT22;10102;50.828;4.416;2023-11-21T15:37:54;12.60;99.90
19880;DHT22;10102;50.828;4.416;2023-11-21T15:40:23;12.70;99.90
19880;DHT22;10102;50.828;4.416;2023-11-21T15:42:49;12.60;99.90
19880;DHT22;10102;50.828;4.416;2023-11-21T15:45:15;12.60;99.90
19880;DHT22;10102;50.828;4.416;2023-11-21T15:47:44;12.70;99.90
19880;DHT22;10102;50.828;4.416;2023-11-21T15:50:10;12.70;99.90
19880;DHT22;10102;50.828;4.416;2023-11-21T15:52:36;12.70;99.90
19880;DHT22;10102;50.828;4.416;2023-11-21T15:55:02;12.80;99.90
19880;DHT22;10102;50.828;4.416;2023-11-21T15:57:28;12.70;99.90
19880;DHT22;10102;50.828;4.416;2023-11-21T15:59:54;12.70;99.90
19880;DHT22;10102;50.828;4.416;2023-11-21T16:02:20;12.70;99.90
19880;DHT22;10102;50.828;4.416;2023-11-21T16:04:45;12.70;99.90